Time;durP1;ratioP1;P1;durP2;ratioP2;P2;SDS_P1;SDS_P2;PMS_P1;PMS_P2;Temp;Humidity;BMP_temperature;BMP_pressure;BME280_temperature;BME280_humidity;BME280_pressure;Samples;Min_cycle;Max_cycle;Signal;HPM_P1;HPM_P2
2023/03/10 10:05:41;;;;;;;9.48;5.68;;;9.60;99.90;;;;;;5029906;28;20412;-63
2023/03/10 10:08:45;;;;;;;10.88;6.00;;;9.60;99.90;;;;;;5028411;28;20641;-63
2023/03/10 10:11:16;;;;;;;11.52;5.43;;;9.90;99.90;;;;;;5018360;28;20045;-63
2023/03/10 10:13:42;;;;;;;8.88;5.50;;;10.20;99.90;;;;;;5025733;28;20144;-63
2023/03/10 10:16:33;;;;;;;7.40;5.15;;;10.50;99.90;;;;;;5024434;28;20021;-63
2023/03/10 10:19:31;;;;;;;9.98;5.45;;;10.70;99.90;;;;;;5022711;28;20025;-63
2023/03/10 10:22:06;;;;;;;5.68;4.22;;;10.90;99.90;;;;;;5020729;28;20060;-63
2023/03/10 10:24:32;;;;;;;9.40;5.22;;;10.90;99.90;;;;;;5022026;28;20041;-63
2023/03/10 10:26:58;;;;;;;8.93;4.85;;;11.00;99.90;;;;;;5022183;28;20025;-64
2023/03/10 10:29:33;;;;;;;8.48;4.80;;;11.00;99.90;;;;;;5026592;28;20108;-64
2023/03/10 10:32:06;;;;;;;6.60;4.57;;;11.00;99.90;;;;;;5018657;28;20033;-64
2023/03/10 10:34:33;;;;;;;5.93;4.82;;;11.00;99.90;;;;;;5019832;28;20029;-63
2023/03/10 10:37:00;;;;;;;7.40;5.03;;;10.90;99.90;;;;;;5022378;28;20041;-63
2023/03/10 10:39:31;;;;;;;8.93;6.13;;;11.00;99.90;;;;;;5026828;28;20041;-63
2023/03/10 10:42:24;;;;;;;14.00;7.10;;;11.00;99.90;;;;;;5022835;28;20029;-63
2023/03/10 10:44:58;;;;;;;8.57;6.25;;;11.00;99.90;;;;;;5019906;28;20611;-63
2023/03/10 10:47:30;;;;;;;12.35;6.97;;;11.00;99.90;;;;;;5027400;28;20044;-63
2023/03/10 10:50:08;;;;;;;10.13;6.95;;;11.00;99.90;;;;;;5017779;28;20061;-63
2023/03/10 10:52:34;;;;;;;11.65;7.80;;;11.00;99.90;;;;;;5018326;28;20456;-63
2023/03/10 10:55:01;;;;;;;10.82;7.15;;;11.00;99.90;;;;;;5021430;28;20033;-62
2023/03/10 10:57:37;;;;;;;11.02;7.72;;;10.90;99.90;;;;;;5019480;28;20040;-63
2023/03/10 11:00:24;;;;;;;13.65;8.27;;;10.80;99.90;;;;;;5017037;28;20034;-63
2023/03/10 11:02:50;;;;;;;13.45;9.45;;;10.80;99.90;;;;;;5020041;28;20499;-63
2023/03/10 11:05:34;;;;;;;15.07;8.68;;;10.80;99.90;;;;;;5020284;28;20148;-64
2023/03/10 11:08:25;;;;;;;14.23;9.93;;;10.90;99.90;;;;;;5024827;28;20053;-64
2023/03/10 11:11:18;;;;;;;13.95;8.45;;;10.90;99.90;;;;;;5024622;28;20030;-64
2023/03/10 11:13:54;;;;;;;12.40;8.75;;;11.00;99.90;;;;;;5026088;28;20029;-64
2023/03/10 11:16:30;;;;;;;13.80;7.60;;;11.00;99.90;;;;;;5011158;28;20034;-64
2023/03/10 11:19:15;;;;;;;11.05;7.40;;;11.10;99.90;;;;;;5012634;28;20025;-64
2023/03/10 11:21:46;;;;;;;10.80;7.20;;;11.10;99.90;;;;;;5013228;28;20030;-64
2023/03/10 11:24:21;;;;;;;10.23;7.07;;;11.10;99.90;;;;;;5008275;28;20048;-64
2023/03/10 11:26:47;;;;;;;10.52;6.22;;;11.10;99.90;;;;;;5013278;28;20105;-64
2023/03/10 11:29:24;;;;;;;11.88;6.65;;;11.00;99.90;;;;;;5012195;28;20057;-65
2023/03/10 11:32:11;;;;;;;8.88;6.80;;;10.90;99.90;;;;;;5013282;28;20112;-64
2023/03/10 11:34:48;;;;;;;9.82;6.75;;;10.80;99.90;;;;;;5012645;28;20509;-65
2023/03/10 11:37:23;;;;;;;10.20;6.60;;;10.80;99.90;;;;;;5014419;28;20026;-65
2023/03/10 11:40:22;;;;;;;10.65;6.97;;;10.70;99.90;;;;;;5008886;28;20115;-65
2023/03/10 11:43:22;;;;;;;9.55;6.35;;;10.70;99.90;;;;;;5011265;28;20045;-65
2023/03/10 11:45:53;;;;;;;9.95;6.80;;;10.70;99.90;;;;;;5010605;28;20744;-67
2023/03/10 11:48:44;;;;;;;11.13;7.20;;;10.60;99.90;;;;;;5008703;28;20045;-65
2023/03/10 11:51:36;;;;;;;8.93;6.03;;;10.70;99.90;;;;;;5018688;28;20026;-64
2023/03/10 11:54:27;;;;;;;10.35;6.47;;;10.70;99.90;;;;;;5008374;28;20026;-64
2023/03/10 11:56:54;;;;;;;8.73;6.38;;;10.80;99.90;;;;;;5007745;28;20041;-65
2023/03/10 11:59:26;;;;;;;8.63;6.88;;;10.90;99.90;;;;;;5007681;28;20096;-65
2023/03/10 12:02:02;;;;;;;9.23;7.03;;;10.90;99.90;;;;;;5002004;28;20029;-64
2023/03/10 12:04:49;;;;;;;8.30;6.03;;;11.00;99.90;;;;;;5010332;28;20103;-64
2023/03/10 12:07:32;;;;;;;8.60;6.47;;;11.00;99.90;;;;;;5015069;28;20491;-64
2023/03/10 12:10:12;;;;;;;10.27;6.32;;;11.10;99.90;;;;;;5008679;28;20037;-64
2023/03/10 12:12:41;;;;;;;10.05;6.03;;;11.10;99.90;;;;;;5009592;28;20971;-64
2023/03/10 12:15:15;;;;;;;8.52;6.10;;;11.10;99.90;;;;;;5009291;28;20068;-64
2023/03/10 12:17:41;;;;;;;8.45;5.65;;;11.00;99.90;;;;;;5004933;28;20099;-64
2023/03/10 12:20:13;;;;;;;7.50;5.30;;;11.00;99.90;;;;;;5005063;28;20038;-64
2023/03/10 12:22:41;;;;;;;8.38;6.32;;;11.00;99.90;;;;;;5008353;28;20091;-64
2023/03/10 12:25:27;;;;;;;8.88;6.10;;;11.10;99.90;;;;;;5008198;28;20026;-64
2023/03/10 12:28:15;;;;;;;8.18;5.68;;;11.10;99.90;;;;;;5010673;28;20574;-64
2023/03/10 12:31:06;;;;;;;9.23;6.30;;;11.20;99.90;;;;;;5009390;28;20413;-64
2023/03/10 12:33:41;;;;;;;6.25;4.65;;;11.30;99.90;;;;;;5008650;28;20584;-64
2023/03/10 12:36:30;;;;;;;6.93;4.93;;;11.30;99.90;;;;;;5011498;28;20025;-64
2023/03/10 12:39:27;;;;;;;5.68;4.57;;;11.20;99.90;;;;;;5012362;28;20739;-64
2023/03/10 12:41:56;;;;;;;6.03;4.35;;;11.20;99.90;;;;;;5007683;28;20030;-64
2023/03/10 12:44:41;;;;;;;8.95;5.05;;;11.10;99.90;;;;;;5010682;28;20037;-65
2023/03/10 12:47:07;;;;;;;5.65;4.35;;;11.10;99.90;;;;;;5007706;28;20029;-64
2023/03/10 12:49:39;;;;;;;6.32;4.18;;;11.10;99.90;;;;;;5013502;28;20031;-64
2023/03/10 12:52:08;;;;;;;6.18;4.72;;;11.10;99.90;;;;;;5000321;28;20105;-64
2023/03/10 12:54:37;;;;;;;4.40;3.88;;;11.10;99.90;;;;;;5008255;28;20036;-64
2023/03/10 12:57:33;;;;;;;6.13;4.60;;;11.20;99.90;;;;;;5008309;28;20041;-64
2023/03/10 13:00:13;;;;;;;8.32;4.90;;;11.20;99.90;;;;;;5007529;28;20038;-66
2023/03/10 13:02:55;;;;;;;6.50;4.90;;;11.30;99.90;;;;;;5002708;28;20749;-63
2023/03/10 13:05:28;;;;;;;6.95;5.75;;;11.40;99.90;;;;;;5009063;28;20041;-65
2023/03/10 13:07:59;;;;;;;5.78;4.68;;;11.40;99.90;;;;;;5003685;28;20030;-66
2023/03/10 13:10:29;;;;;;;65.60;27.33;;;11.50;99.90;;;;;;5012279;28;20075;-66
2023/03/10 13:13:00;;;;;;;6.60;4.95;;;11.60;99.90;;;;;;5010525;28;20340;-66
2023/03/10 13:15:30;;;;;;;9.00;5.00;;;11.60;99.90;;;;;;5004287;28;20040;-66
2023/03/10 13:18:18;;;;;;;11.35;7.07;;;11.50;99.90;;;;;;5010766;28;20036;-66
2023/03/10 13:20:45;;;;;;;5.50;4.13;;;11.50;99.90;;;;;;5008693;28;20044;-64
2023/03/10 13:23:27;;;;;;;5.13;4.03;;;11.50;99.90;;;;;;5005711;28;20038;-66
2023/03/10 13:26:18;;;;;;;4.50;3.83;;;11.40;99.90;;;;;;5012167;28;20034;-64
2023/03/10 13:28:53;;;;;;;6.85;4.13;;;11.40;99.90;;;;;;5019353;28;20073;-65
2023/03/10 13:31:22;;;;;;;6.82;4.07;;;11.40;99.90;;;;;;5015252;28;20041;-65
2023/03/10 13:33:49;;;;;;;5.25;3.75;;;11.40;99.90;;;;;;5011071;28;20051;-65
2023/03/10 13:36:27;;;;;;;6.78;4.70;;;11.40;99.90;;;;;;5011321;28;20084;-65
2023/03/10 13:38:55;;;;;;;5.28;3.85;;;11.40;99.90;;;;;;5013181;28;20081;-65
2023/03/10 13:41:21;;;;;;;4.75;3.90;;;11.50;99.90;;;;;;5011487;28;20667;-65
2023/03/10 13:43:50;;;;;;;6.05;3.25;;;11.30;99.90;;;;;;5007080;28;20030;-65
2023/03/10 13:46:28;;;;;;;4.82;3.55;;;11.30;99.90;;;;;;5014186;28;20056;-65
2023/03/10 13:49:02;;;;;;;5.00;3.97;;;11.20;99.90;;;;;;5003997;28;20127;-65
2023/03/10 13:51:30;;;;;;;5.75;3.80;;;11.20;99.90;;;;;;5007539;28;20123;-65
2023/03/10 13:54:16;;;;;;;4.63;3.55;;;11.20;99.90;;;;;;5011114;28;20120;-64
2023/03/10 13:56:42;;;;;;;5.07;3.47;;;11.10;99.90;;;;;;5002901;28;20056;-64
2023/03/10 13:59:15;;;;;;;6.00;4.18;;;11.00;99.90;;;;;;5006164;28;20292;-65
2023/03/10 14:01:49;;;;;;;6.32;3.17;;;11.00;99.90;;;;;;5005560;28;20025;-64
2023/03/10 14:04:42;;;;;;;4.75;3.25;;;10.90;99.90;;;;;;5009539;28;20495;-64
2023/03/10 14:07:21;;;;;;;4.53;3.63;;;10.80;99.90;;;;;;5007035;28;20029;-65
2023/03/10 14:10:09;;;;;;;5.65;3.20;;;10.80;99.90;;;;;;5008059;28;20037;-65
2023/03/10 14:12:42;;;;;;;4.60;3.17;;;10.70;99.90;;;;;;5009622;28;20595;-65
2023/03/10 14:15:20;;;;;;;5.65;3.92;;;10.70;99.90;;;;;;5020832;28;20124;-65
2023/03/10 14:18:11;;;;;;;5.05;3.45;;;10.70;99.90;;;;;;4999938;28;20036;-65
2023/03/10 14:20:43;;;;;;;6.70;3.88;;;10.70;99.90;;;;;;5011787;28;20108;-65
2023/03/10 14:23:18;;;;;;;5.93;4.00;;;10.90;99.90;;;;;;5008770;28;20240;-66
2023/03/10 14:25:45;;;;;;;5.47;3.75;;;10.90;99.90;;;;;;5003058;28;20458;-65
2023/03/10 14:28:15;;;;;;;5.90;3.92;;;11.00;99.90;;;;;;5007577;28;20049;-66
2023/03/10 14:30:43;;;;;;;7.63;4.10;;;11.00;99.90;;;;;;5007604;28;20860;-64
2023/03/10 14:33:12;;;;;;;6.43;4.15;;;11.00;99.90;;;;;;5006696;28;20034;-66
2023/03/10 14:35:38;;;;;;;4.85;3.30;;;10.90;99.90;;;;;;5012933;28;20032;-65
2023/03/10 14:38:04;;;;;;;6.13;3.08;;;10.80;99.40;;;;;;5006505;28;20105;-65
2023/03/10 14:40:33;;;;;;;5.68;3.33;;;10.70;99.60;;;;;;5007339;28;20816;-64
2023/03/10 14:43:01;;;;;;;5.05;3.83;;;10.70;99.80;;;;;;5008711;28;20025;-66
2023/03/10 14:45:32;;;;;;;6.35;3.80;;;10.80;99.90;;;;;;5005754;28;20026;-65
2023/03/10 14:48:00;;;;;;;5.38;3.30;;;10.70;99.90;;;;;;5011881;28;20061;-64
2023/03/10 14:50:28;;;;;;;6.88;3.70;;;10.70;99.20;;;;;;5007284;28;20029;-65
2023/03/10 14:52:54;;;;;;;8.43;3.97;;;10.60;99.10;;;;;;5016214;28;20044;-65
2023/03/10 14:55:20;;;;;;;7.45;4.00;;;10.50;99.00;;;;;;5010720;28;20034;-64
2023/03/10 14:57:49;;;;;;;5.97;3.67;;;10.40;99.60;;;;;;5011580;28;20080;-64
2023/03/10 15:00:20;;;;;;;6.75;3.70;;;10.30;99.90;;;;;;5014083;28;20384;-65
2023/03/10 15:02:46;;;;;;;6.57;4.07;;;10.20;99.80;;;;;;5010758;28;20030;-65
2023/03/10 15:05:21;;;;;;;7.88;5.75;;;10.00;99.90;;;;;;5010717;28;20145;-64
2023/03/10 15:07:50;;;;;;;8.23;4.78;;;9.90;99.90;;;;;;5012388;28;20046;-65
2023/03/10 15:10:19;;;;;;;8.02;4.45;;;9.80;99.90;;;;;;5005775;28;20034;-65
2023/03/10 15:12:45;;;;;;;12.48;9.10;;;9.70;99.90;;;;;;5013961;28;20030;-65
2023/03/10 15:15:36;;;;;;;8.27;6.18;;;9.60;99.90;;;;;;5009534;28;20413;-65
2023/03/10 15:18:02;;;;;;;9.32;5.25;;;9.40;99.90;;;;;;5008864;28;20044;-65
2023/03/10 15:20:28;;;;;;;10.30;6.43;;;9.40;99.90;;;;;;5010310;28;20044;-65
2023/03/10 15:22:54;;;;;;;10.60;5.80;;;9.30;99.90;;;;;;5013720;28;20231;-65
2023/03/10 15:25:21;;;;;;;6.60;4.18;;;9.10;99.90;;;;;;5008516;28;20092;-65
2023/03/10 15:27:49;;;;;;;8.85;4.70;;;9.00;99.90;;;;;;5005740;28;20833;-65
2023/03/10 15:30:24;;;;;;;6.25;3.85;;;8.90;99.90;;;;;;5011244;28;20030;-65
2023/03/10 15:32:50;;;;;;;8.27;5.65;;;8.80;99.90;;;;;;5009799;28;20040;-65
2023/03/10 15:35:16;;;;;;;7.07;4.50;;;8.70;99.90;;;;;;5015966;28;20037;-65
2023/03/10 15:37:42;;;;;;;8.77;4.90;;;8.70;99.90;;;;;;5017329;28;20747;-65
2023/03/10 15:40:13;;;;;;;7.75;4.78;;;8.60;99.90;;;;;;5012970;28;20041;-65
2023/03/10 15:42:41;;;;;;;7.40;4.75;;;8.60;99.90;;;;;;5011239;28;20900;-65
2023/03/10 15:45:09;;;;;;;8.43;4.82;;;8.50;99.90;;;;;;5012756;28;20079;-65
2023/03/10 15:47:34;;;;;;;7.38;4.78;;;8.50;99.90;;;;;;5015203;28;20042;-65
2023/03/10 15:50:00;;;;;;;9.05;4.75;;;8.50;99.90;;;;;;5012890;28;20048;-65
2023/03/10 15:52:26;;;;;;;7.43;4.30;;;8.50;99.90;;;;;;5012276;28;20027;-64
2023/03/10 15:54:52;;;;;;;10.23;5.10;;;8.50;99.90;;;;;;5014179;28;20033;-64
2023/03/10 15:57:18;;;;;;;8.88;5.05;;;8.40;99.90;;;;;;5013779;28;20029;-64
2023/03/10 15:59:43;;;;;;;8.13;5.32;;;8.40;99.90;;;;;;5008306;28;20087;-63
2023/03/10 16:02:11;;;;;;;8.45;4.78;;;8.40;99.90;;;;;;5013627;28;20089;-63
2023/03/10 16:04:37;;;;;;;6.90;4.50;;;8.40;99.90;;;;;;5006905;28;20416;-63
2023/03/10 16:07:04;;;;;;;10.55;5.40;;;8.20;99.90;;;;;;5013465;28;20034;-64
2023/03/10 16:09:30;;;;;;;10.90;5.93;;;8.20;99.90;;;;;;5012110;28;20040;-63
2023/03/10 16:11:56;;;;;;;9.35;5.53;;;8.20;99.90;;;;;;5019201;28;20029;-63
2023/03/10 16:14:25;;;;;;;10.30;5.85;;;8.00;99.90;;;;;;5013777;28;20037;-64
2023/03/10 16:16:51;;;;;;;10.50;5.75;;;8.00;99.90;;;;;;5006000;28;20040;-64
2023/03/10 16:19:17;;;;;;;8.70;5.10;;;7.90;99.90;;;;;;5019341;28;20026;-64
2023/03/10 16:21:44;;;;;;;10.00;5.60;;;7.90;99.90;;;;;;5011217;28;20418;-63
2023/03/10 16:24:10;;;;;;;9.25;5.70;;;7.80;99.90;;;;;;5014371;28;20065;-63
2023/03/10 16:26:36;;;;;;;8.15;5.40;;;7.80;99.90;;;;;;5008925;28;20029;-65
2023/03/10 16:29:02;;;;;;;10.25;5.30;;;7.70;99.90;;;;;;5008201;28;20037;-63
2023/03/10 16:31:28;;;;;;;8.32;5.63;;;7.70;99.90;;;;;;5008283;28;20038;-64
2023/03/10 16:33:55;;;;;;;10.15;5.72;;;7.60;99.90;;;;;;5007591;28;20398;-64
2023/03/10 16:36:26;;;;;;;8.45;5.57;;;7.60;99.90;;;;;;5014440;28;20651;-63
2023/03/10 16:38:53;;;;;;;7.55;4.95;;;7.50;99.90;;;;;;5008189;28;20026;-64
2023/03/10 16:41:20;;;;;;;7.53;4.80;;;7.50;99.90;;;;;;5013870;28;20029;-64
2023/03/10 16:43:46;;;;;;;9.07;5.00;;;7.50;99.90;;;;;;5012070;28;20029;-64
2023/03/10 16:46:24;;;;;;;9.43;5.45;;;7.50;99.90;;;;;;5007782;28;20033;-64
2023/03/10 16:48:51;;;;;;;7.80;4.80;;;7.50;99.90;;;;;;5015178;28;20018;-64
2023/03/10 16:51:34;;;;;;;7.43;4.55;;;7.40;99.90;;;;;;5004974;28;20033;-64
2023/03/10 16:54:09;;;;;;;8.32;5.40;;;7.40;99.90;;;;;;5007663;28;20034;-64
2023/03/10 16:56:37;;;;;;;7.20;4.95;;;7.50;99.90;;;;;;5003590;28;20033;-64
2023/03/10 16:59:04;;;;;;;6.72;4.47;;;7.40;99.90;;;;;;5016188;28;20044;-63
2023/03/10 17:01:30;;;;;;;6.93;4.78;;;7.30;99.90;;;;;;5010350;28;20030;-64
2023/03/10 17:03:57;;;;;;;7.05;4.65;;;7.30;99.90;;;;;;5008428;28;20038;-63
2023/03/10 17:06:26;;;;;;;6.65;4.43;;;7.30;99.90;;;;;;5006356;28;20038;-64
2023/03/10 17:08:53;;;;;;;6.70;4.95;;;7.20;99.90;;;;;;5009109;28;20179;-63
2023/03/10 17:11:20;;;;;;;7.43;4.78;;;7.20;99.90;;;;;;5008464;28;20037;-64
2023/03/10 17:13:48;;;;;;;6.35;4.40;;;7.10;99.90;;;;;;5009955;28;20104;-65
2023/03/10 17:16:16;;;;;;;5.38;4.18;;;7.10;99.90;;;;;;5009445;28;20025;-65
2023/03/10 17:18:43;;;;;;;5.57;3.65;;;7.10;99.90;;;;;;5004020;28;20033;-64
2023/03/10 17:21:17;;;;;;;5.78;4.30;;;7.10;99.90;;;;;;5009129;28;20116;-64
2023/03/10 17:23:44;;;;;;;6.45;4.40;;;7.10;99.90;;;;;;5002808;28;20030;-64
2023/03/10 17:26:11;;;;;;;6.68;4.72;;;7.10;99.90;;;;;;5009634;28;20168;-64
2023/03/10 17:28:37;;;;;;;6.35;4.70;;;7.00;99.90;;;;;;5009475;28;20036;-64
2023/03/10 17:31:15;;;;;;;7.30;5.20;;;7.00;99.90;;;;;;5010672;28;20030;-65
2023/03/10 17:33:42;;;;;;;7.18;5.35;;;7.00;99.90;;;;;;5016887;28;20033;-63
2023/03/10 17:36:11;;;;;;;7.97;5.13;;;7.00;99.90;;;;;;5001443;28;20200;-64
2023/03/10 17:38:37;;;;;;;8.18;4.88;;;6.90;99.90;;;;;;5011775;28;20035;-65
2023/03/10 17:41:05;;;;;;;7.75;5.30;;;6.90;99.90;;;;;;5010406;28;20065;-63
2023/03/10 17:43:32;;;;;;;9.20;5.80;;;6.90;99.90;;;;;;5017250;28;20037;-64
2023/03/10 17:46:00;;;;;;;9.40;5.68;;;6.90;99.90;;;;;;5015199;28;20033;-64
2023/03/10 17:48:27;;;;;;;8.82;5.60;;;6.90;99.90;;;;;;5013089;28;20037;-64
2023/03/10 17:50:53;;;;;;;9.48;5.88;;;6.80;99.90;;;;;;5008713;28;20037;-65
2023/03/10 17:53:19;;;;;;;9.32;5.25;;;6.80;99.90;;;;;;5008979;28;20072;-64
2023/03/10 17:55:44;;;;;;;8.95;5.20;;;6.70;99.90;;;;;;5015017;28;20029;-64
2023/03/10 17:58:10;;;;;;;8.95;5.38;;;6.60;99.90;;;;;;5012695;28;20666;-64
2023/03/10 18:00:36;;;;;;;11.68;6.22;;;6.60;99.90;;;;;;5009356;28;20025;-64
2023/03/10 18:03:02;;;;;;;9.18;5.43;;;6.60;99.90;;;;;;5009453;28;20643;-63
2023/03/10 18:05:28;;;;;;;10.93;5.85;;;6.60;99.90;;;;;;5016536;28;20095;-64
2023/03/10 18:07:54;;;;;;;9.27;5.00;;;6.60;99.90;;;;;;5014373;28;20033;-63
2023/03/10 18:10:21;;;;;;;7.32;5.30;;;6.60;99.90;;;;;;5014545;28;20045;-63
2023/03/10 18:12:47;;;;;;;8.65;5.28;;;6.60;99.90;;;;;;5014555;28;20032;-64
2023/03/10 18:15:13;;;;;;;11.27;5.63;;;6.60;99.90;;;;;;5013595;28;20033;-63
2023/03/10 18:17:39;;;;;;;10.18;5.50;;;6.60;99.90;;;;;;5015416;28;20026;-63
2023/03/10 18:20:06;;;;;;;8.43;5.85;;;6.60;99.90;;;;;;5010761;28;20040;-63
2023/03/10 18:22:35;;;;;;;9.90;6.20;;;6.60;99.90;;;;;;5014729;28;20033;-65
2023/03/10 18:25:01;;;;;;;8.40;4.80;;;6.60;99.90;;;;;;5016636;28;20195;-65
2023/03/10 18:27:28;;;;;;;8.18;4.97;;;6.60;99.90;;;;;;5013672;28;20651;-67
2023/03/10 18:29:54;;;;;;;9.35;5.35;;;6.60;99.90;;;;;;5008685;28;20036;-65
2023/03/10 18:32:20;;;;;;;7.00;4.50;;;6.50;99.90;;;;;;5010525;28;20033;-65
2023/03/10 18:34:46;;;;;;;8.77;5.53;;;6.50;99.90;;;;;;5008977;28;20064;-66
2023/03/10 18:37:12;;;;;;;7.55;4.40;;;6.50;99.90;;;;;;5006972;28;20398;-66
2023/03/10 18:39:38;;;;;;;8.07;5.15;;;6.50;99.90;;;;;;5012158;28;20087;-67
2023/03/10 18:42:03;;;;;;;7.55;4.80;;;6.50;99.90;;;;;;5012684;28;20034;-66
2023/03/10 18:44:30;;;;;;;8.60;5.43;;;6.50;99.90;;;;;;5010566;28;20053;-66
2023/03/10 18:46:55;;;;;;;8.18;5.10;;;6.50;99.90;;;;;;5012871;28;20397;-67
2023/03/10 18:49:21;;;;;;;9.85;5.55;;;6.50;99.90;;;;;;5007967;28;20036;-66
2023/03/10 18:51:47;;;;;;;7.43;5.18;;;6.50;99.90;;;;;;5008838;28;20368;-67
2023/03/10 18:54:13;;;;;;;7.85;4.90;;;6.50;99.90;;;;;;5011734;28;20030;-66
2023/03/10 18:56:39;;;;;;;8.48;5.50;;;6.40;99.90;;;;;;5017257;28;20032;-66
2023/03/10 18:59:04;;;;;;;10.93;5.88;;;6.40;99.90;;;;;;5014305;28;20116;-66
2023/03/10 19:01:30;;;;;;;8.43;5.50;;;6.40;99.90;;;;;;5007971;28;20030;-67
2023/03/10 19:03:56;;;;;;;8.23;5.25;;;6.30;99.90;;;;;;5021104;28;20551;-67
2023/03/10 19:06:22;;;;;;;7.25;5.05;;;6.30;99.90;;;;;;5016795;28;20041;-66
2023/03/10 19:08:48;;;;;;;8.85;5.88;;;6.30;99.90;;;;;;5012217;28;20373;-67
2023/03/10 19:11:14;;;;;;;7.82;5.22;;;6.30;99.90;;;;;;5015320;28;20132;-67
2023/03/10 19:13:42;;;;;;;10.65;5.90;;;6.30;99.90;;;;;;5013310;28;20037;-69
2023/03/10 19:16:09;;;;;;;7.72;5.25;;;6.20;99.90;;;;;;5016266;28;20026;-68
2023/03/10 19:18:35;;;;;;;8.18;5.80;;;6.20;99.90;;;;;;5016845;28;20026;-66
2023/03/10 19:21:02;;;;;;;10.95;6.80;;;6.20;99.90;;;;;;5018985;28;20053;-67
2023/03/10 19:23:28;;;;;;;8.05;5.35;;;6.20;99.90;;;;;;5020080;28;20557;-67
2023/03/10 19:25:54;;;;;;;8.55;5.25;;;6.20;99.90;;;;;;5017694;28;20116;-67
2023/03/10 19:28:20;;;;;;;8.45;5.22;;;6.20;99.90;;;;;;5019151;28;20058;-65
2023/03/10 19:30:46;;;;;;;8.20;5.70;;;6.30;99.90;;;;;;5019463;28;20045;-64
2023/03/10 19:33:12;;;;;;;10.02;6.03;;;6.20;99.90;;;;;;5017874;28;20034;-64
2023/03/10 19:35:37;;;;;;;8.52;5.97;;;6.20;99.90;;;;;;5022828;28;20044;-67
2023/03/10 19:38:04;;;;;;;9.05;5.55;;;6.20;99.90;;;;;;5017603;28;20053;-66
2023/03/10 19:40:30;;;;;;;9.18;5.90;;;6.10;99.90;;;;;;5020602;28;20029;-67
2023/03/10 19:42:56;;;;;;;10.45;6.80;;;6.10;99.90;;;;;;5016785;28;20368;-67
2023/03/10 19:45:22;;;;;;;11.65;6.75;;;6.20;99.90;;;;;;5019080;28;20116;-67
2023/03/10 19:47:48;;;;;;;11.30;5.88;;;6.10;99.90;;;;;;5020637;28;20190;-67
2023/03/10 19:50:16;;;;;;;9.63;6.32;;;6.00;99.90;;;;;;5023988;28;20512;-67
2023/03/10 19:52:46;;;;;;;9.45;6.15;;;6.00;99.90;;;;;;5018591;28;20033;-67
2023/03/10 19:55:18;;;;;;;13.02;6.28;;;6.00;99.90;;;;;;5022504;28;20041;-67
2023/03/10 19:57:47;;;;;;;11.48;6.82;;;5.90;99.90;;;;;;5015775;28;20075;-67
2023/03/10 20:00:15;;;;;;;10.10;6.95;;;5.90;99.90;;;;;;5020393;28;20026;-67
2023/03/10 20:02:43;;;;;;;10.32;6.68;;;5.90;99.90;;;;;;5018516;28;20036;-67
2023/03/10 20:05:12;;;;;;;9.90;6.18;;;6.00;99.90;;;;;;5021375;28;20132;-67
2023/03/10 20:07:40;;;;;;;11.13;6.43;;;6.00;99.90;;;;;;5019014;28;20109;-67
2023/03/10 20:10:08;;;;;;;9.25;5.60;;;6.00;99.90;;;;;;5021088;28;20033;-67
2023/03/10 20:12:34;;;;;;;10.05;6.45;;;6.00;99.90;;;;;;5025743;28;20076;-66
2023/03/10 20:15:00;;;;;;;8.60;5.57;;;6.00;99.90;;;;;;5020900;28;20026;-67
2023/03/10 20:17:26;;;;;;;9.45;6.20;;;5.90;99.90;;;;;;5021593;28;20036;-67
2023/03/10 20:19:52;;;;;;;10.27;5.78;;;5.90;99.90;;;;;;5026673;28;20041;-67
2023/03/10 20:22:18;;;;;;;8.73;6.28;;;5.90;99.90;;;;;;5019959;28;20041;-66
2023/03/10 20:24:45;;;;;;;8.48;5.80;;;5.80;99.90;;;;;;5024513;28;20120;-67
2023/03/10 20:27:11;;;;;;;9.20;5.90;;;5.80;99.90;;;;;;5021119;28;20509;-67
2023/03/10 20:29:37;;;;;;;9.38;6.25;;;5.80;99.90;;;;;;5017776;28;20116;-67
2023/03/10 20:32:03;;;;;;;10.35;5.97;;;5.80;99.90;;;;;;5015705;28;20117;-67
2023/03/10 20:34:30;;;;;;;10.23;6.03;;;5.80;99.90;;;;;;5020341;28;20133;-67
2023/03/10 20:36:56;;;;;;;10.70;6.75;;;5.80;99.90;;;;;;5020206;28;20857;-67
2023/03/10 20:39:23;;;;;;;11.95;7.30;;;5.80;99.90;;;;;;5020366;28;20034;-67
2023/03/10 20:41:49;;;;;;;9.98;6.35;;;5.80;99.90;;;;;;5021456;28;20064;-66
2023/03/10 20:44:17;;;;;;;9.48;6.03;;;5.70;99.90;;;;;;5012733;28;20046;-67
2023/03/10 20:46:44;;;;;;;14.80;6.90;;;5.70;99.90;;;;;;5021130;28;20057;-67
2023/03/10 20:49:11;;;;;;;12.02;6.95;;;5.70;99.90;;;;;;5017518;28;20106;-67
2023/03/10 20:51:38;;;;;;;9.57;6.22;;;5.70;99.90;;;;;;5016099;28;20034;-66
2023/03/10 20:54:05;;;;;;;10.88;6.75;;;5.60;99.90;;;;;;5019543;28;20053;-64
2023/03/10 20:56:32;;;;;;;11.23;6.72;;;5.50;99.90;;;;;;5018817;28;20030;-64
2023/03/10 20:59:00;;;;;;;9.85;6.25;;;5.50;99.90;;;;;;5017171;28;20029;-67
2023/03/10 21:01:27;;;;;;;13.75;7.03;;;5.50;99.90;;;;;;5018542;28;20048;-67
2023/03/10 21:03:54;;;;;;;12.55;7.05;;;5.40;99.90;;;;;;5018584;28;20479;-66
2023/03/10 21:06:25;;;;;;;13.10;7.38;;;5.40;99.90;;;;;;5019419;28;20061;-67
2023/03/10 21:08:51;;;;;;;12.73;7.15;;;5.40;99.90;;;;;;5019950;28;20090;-67
2023/03/10 21:11:17;;;;;;;14.65;7.68;;;5.40;99.90;;;;;;5023045;28;20565;-65
2023/03/10 21:13:43;;;;;;;12.65;7.47;;;5.40;99.90;;;;;;5018454;28;20083;-66
2023/03/10 21:16:10;;;;;;;13.02;7.82;;;5.40;99.90;;;;;;5018853;28;20022;-65
2023/03/10 21:18:36;;;;;;;11.90;7.63;;;5.40;99.90;;;;;;5024664;28;20040;-66
2023/03/10 21:21:06;;;;;;;14.30;8.13;;;5.40;99.90;;;;;;5018438;28;20022;-66
2023/03/10 21:23:39;;;;;;;14.27;7.93;;;5.40;99.90;;;;;;5020023;28;20029;-66
2023/03/10 21:26:13;;;;;;;11.95;8.02;;;5.30;99.90;;;;;;5022151;28;20034;-66
2023/03/10 21:28:40;;;;;;;14.45;8.07;;;5.30;99.90;;;;;;5015410;28;20371;-66
2023/03/10 21:31:06;;;;;;;12.60;7.93;;;5.30;99.90;;;;;;5013959;28;20026;-66
2023/03/10 21:33:32;;;;;;;14.15;8.18;;;5.30;99.90;;;;;;5020170;28;20068;-65
2023/03/10 21:35:59;;;;;;;13.00;7.90;;;5.40;99.90;;;;;;5008870;28;20056;-66
2023/03/10 21:38:24;;;;;;;15.90;9.05;;;5.40;99.90;;;;;;5011822;28;20061;-66
2023/03/10 21:40:50;;;;;;;15.10;8.73;;;5.40;99.90;;;;;;5009990;28;20026;-66
2023/03/10 21:43:17;;;;;;;14.07;8.65;;;5.40;99.90;;;;;;5012691;28;20818;-65
2023/03/10 21:45:43;;;;;;;17.42;9.93;;;5.40;99.90;;;;;;5011517;28;20037;-66
2023/03/10 21:48:10;;;;;;;15.73;9.00;;;5.40;99.90;;;;;;5015317;28;20030;-66
2023/03/10 21:50:37;;;;;;;15.38;8.73;;;5.40;99.90;;;;;;5010911;28;20076;-65
2023/03/10 21:53:03;;;;;;;14.82;8.27;;;5.40;99.90;;;;;;5012980;28;20025;-66
2023/03/10 21:55:33;;;;;;;15.35;8.68;;;5.30;99.90;;;;;;5020252;28;20048;-65
2023/03/10 21:57:59;;;;;;;15.93;8.98;;;5.30;99.90;;;;;;5019703;28;20057;-65
2023/03/10 22:00:25;;;;;;;18.42;9.45;;;5.30;99.90;;;;;;5019133;28;20079;-66
2023/03/10 22:02:52;;;;;;;16.08;8.68;;;5.30;99.90;;;;;;5016553;28;20029;-66
2023/03/10 22:05:19;;;;;;;16.42;9.05;;;5.30;99.90;;;;;;5011344;28;20655;-66
2023/03/10 22:07:44;;;;;;;13.85;8.18;;;5.30;99.90;;;;;;5003833;28;20113;-66
2023/03/10 22:10:12;;;;;;;15.55;9.05;;;5.30;99.90;;;;;;5005224;28;20049;-66
2023/03/10 22:12:39;;;;;;;14.50;8.25;;;5.20;99.90;;;;;;5010034;28;20913;-66
2023/03/10 22:15:06;;;;;;;13.98;9.43;;;5.20;99.90;;;;;;5004672;28;20121;-66
2023/03/10 22:17:33;;;;;;;11.35;7.35;;;5.20;99.90;;;;;;5011179;28;20498;-66
2023/03/10 22:20:00;;;;;;;14.35;8.52;;;5.20;99.90;;;;;;5011942;28;20022;-65
2023/03/10 22:22:26;;;;;;;14.05;8.00;;;5.20;99.90;;;;;;5010985;28;20017;-65
2023/03/10 22:24:52;;;;;;;14.05;8.18;;;5.20;99.90;;;;;;5011850;28;20082;-66
2023/03/10 22:27:18;;;;;;;14.40;8.25;;;5.30;99.90;;;;;;5009385;28;20106;-66
2023/03/10 22:29:45;;;;;;;12.15;6.93;;;5.30;99.90;;;;;;5007548;28;20097;-66
2023/03/10 22:32:11;;;;;;;11.35;7.43;;;5.20;99.90;;;;;;5008572;28;20045;-66
2023/03/10 22:34:36;;;;;;;15.05;8.07;;;5.20;99.90;;;;;;5003815;28;20026;-65
2023/03/10 22:37:02;;;;;;;11.20;6.53;;;5.10;99.90;;;;;;5005834;28;20648;-67
2023/03/10 22:39:28;;;;;;;12.10;7.05;;;5.10;99.90;;;;;;5007229;28;20030;-66
2023/03/10 22:41:54;;;;;;;11.25;7.22;;;5.10;99.90;;;;;;5005408;28;20107;-65
2023/03/10 22:44:20;;;;;;;10.50;6.97;;;5.10;99.90;;;;;;5017712;28;20029;-66
2023/03/10 22:46:46;;;;;;;11.93;7.45;;;5.20;99.90;;;;;;5014817;28;20064;-66
2023/03/10 22:49:13;;;;;;;15.18;8.02;;;5.20;99.90;;;;;;5014052;28;20034;-66
2023/03/10 22:51:39;;;;;;;11.05;7.10;;;5.20;99.90;;;;;;5019025;28;20462;-66
2023/03/10 22:54:04;;;;;;;12.50;7.07;;;5.20;99.90;;;;;;5012038;28;20129;-66
2023/03/10 22:56:30;;;;;;;13.00;7.65;;;5.20;99.90;;;;;;5013841;28;20754;-66
2023/03/10 22:58:56;;;;;;;13.85;7.32;;;5.20;99.90;;;;;;5014815;28;20052;-66
2023/03/10 23:01:22;;;;;;;11.68;7.32;;;5.20;99.90;;;;;;5012971;28;20508;-66
2023/03/10 23:03:48;;;;;;;11.40;7.13;;;5.20;99.90;;;;;;5015414;28;20033;-66
2023/03/10 23:06:14;;;;;;;11.10;7.32;;;5.10;99.90;;;;;;5015175;28;20060;-66
2023/03/10 23:08:42;;;;;;;12.65;6.90;;;5.10;99.90;;;;;;5015259;28;20104;-66
2023/03/10 23:11:09;;;;;;;12.73;7.90;;;5.10;99.90;;;;;;5013082;28;20036;-66